Terminal Aerodrome Forecast
Issued by NWS

Home | Current Version | Previous Version | Graphics & Text | Print | Product List | Glossary On
Versions: 1 2 3 4 5 6 7 8 9 10 11 12
000
FTUS43 KMPX 301720
TAFRWF
TAF
KRWF 301720Z 3018/0118 07006KT P6SM FEW040 BKN200
     FM010200 09005KT P6SM BKN150
     FM010900 12007KT P6SM VCSH SCT040 BKN080=

USA.gov is the U.S. government's official web portal to all federal, state and local government web resources and services.